Crookston, Minnesota
Current Conditions -  °F | °C
As of 8:34 PM on Saturday 22 Nov 2014 (Local Time) from KCKN Reporting Station
Clear Clear  
Wind Chill: 26°   Ceiling: Unl
Heat Index: 36°   Visibility: 10mi
Dew Point: 30°   Wind: 15mph
Humidity: 81%   Direction: 200°SSW
Pressure: 29.4"   Gusts: NA
Location:  47.77°N, 96.61°W
Report Text: KCKN 230234Z AUTO 20013KT 10SM CLR 02/M01 A2940 RMK AO2
Loading
Personal Weather Stations






























Interactive Weather Map New forecast layout! Learn more

10-Day Weather Forecast

Advertisements
Track Severe Weather on mobile